createdAt,value
2023-02-03T00:00:03.366Z,1.27
2023-02-03T00:00:13.373Z,1.28
2023-02-03T00:00:23.694Z,1.28
2023-02-03T00:00:33.375Z,1.27
2023-02-03T00:00:43.369Z,1.26
2023-02-03T00:00:53.370Z,1.26
2023-02-03T00:01:03.374Z,1.22
2023-02-03T00:01:13.379Z,1.23
2023-02-03T00:01:23.373Z,1.23
2023-02-03T00:01:33.407Z,1.23
2023-02-03T00:01:43.429Z,1.22
2023-02-03T00:01:53.472Z,1.22
2023-02-03T00:02:03.472Z,1.23
2023-02-03T00:02:13.519Z,1.22
2023-02-03T00:02:23.383Z,1.22
2023-02-03T00:02:33.384Z,1.20
2023-02-03T00:02:43.437Z,1.20
2023-02-03T00:02:53.444Z,1.20
2023-02-03T00:03:03.399Z,1.19
2023-02-03T00:03:13.444Z,1.20
2023-02-03T00:03:23.417Z,1.19
2023-02-03T00:03:33.402Z,1.18
2023-02-03T00:03:43.386Z,1.18
2023-02-03T00:03:53.388Z,1.18
2023-02-03T00:04:03.387Z,1.16
2023-02-03T00:04:13.396Z,1.16
2023-02-03T00:04:23.384Z,1.13
2023-02-03T00:04:33.385Z,1.15
2023-02-03T00:04:43.393Z,1.16
2023-02-03T00:04:53.391Z,1.15
2023-02-03T00:05:03.390Z,1.13
2023-02-03T00:05:13.394Z,1.13
2023-02-03T00:05:23.429Z,1.12
2023-02-03T00:05:33.385Z,1.13
2023-02-03T00:05:43.387Z,1.12
2023-02-03T00:05:53.394Z,1.13
2023-02-03T00:06:03.403Z,1.12
2023-02-03T00:06:13.409Z,1.10
2023-02-03T00:06:23.391Z,1.12
2023-02-03T00:06:33.419Z,1.09
2023-02-03T00:06:43.402Z,1.10
2023-02-03T00:06:53.398Z,1.10
2023-02-03T00:07:03.396Z,1.12
2023-02-03T00:07:13.412Z,1.10
2023-02-03T00:07:23.398Z,1.12
2023-02-03T00:07:33.397Z,1.09
2023-02-03T00:07:43.406Z,1.09
2023-02-03T00:07:53.409Z,1.10
2023-02-03T00:08:03.397Z,1.10
2023-02-03T00:08:13.405Z,1.09
2023-02-03T00:08:23.398Z,1.10
2023-02-03T00:08:33.406Z,1.08
2023-02-03T00:08:43.404Z,1.10
2023-02-03T00:08:53.406Z,1.09
2023-02-03T00:09:03.412Z,1.10
2023-02-03T00:09:13.398Z,1.08
2023-02-03T00:09:23.403Z,1.09
2023-02-03T00:09:33.405Z,1.09
2023-02-03T00:09:43.410Z,1.09
2023-02-03T00:09:53.412Z,1.10
2023-02-03T00:10:03.415Z,1.12
2023-02-03T00:10:13.398Z,1.12
2023-02-03T00:10:23.566Z,1.12
2023-02-03T00:10:33.409Z,1.15
2023-02-03T00:10:43.410Z,1.15
2023-02-03T00:10:53.412Z,1.15
2023-02-03T00:11:03.410Z,1.16
2023-02-03T00:11:13.408Z,1.16
2023-02-03T00:11:23.411Z,1.16
2023-02-03T00:11:33.415Z,1.16
2023-02-03T00:11:43.409Z,1.18
2023-02-03T00:11:53.413Z,1.19
2023-02-03T00:12:03.419Z,1.20
2023-02-03T00:12:13.416Z,1.22
2023-02-03T00:12:23.424Z,1.22
2023-02-03T00:12:33.419Z,1.28
2023-02-03T00:12:43.427Z,1.30
2023-02-03T00:12:53.413Z,1.33
2023-02-03T00:13:03.416Z,1.34
2023-02-03T00:13:13.422Z,1.38
2023-02-03T00:13:23.421Z,1.38
2023-02-03T00:13:33.420Z,1.41
2023-02-03T00:13:43.423Z,1.44
2023-02-03T00:13:53.420Z,1.45
2023-02-03T00:14:03.420Z,1.45
2023-02-03T00:14:13.438Z,1.47
2023-02-03T00:14:23.422Z,1.48
2023-02-03T00:14:33.422Z,1.48
2023-02-03T00:14:43.423Z,1.49
2023-02-03T00:14:53.425Z,1.51
2023-02-03T00:15:03.432Z,1.52
2023-02-03T00:15:13.426Z,1.54
2023-02-03T00:15:23.454Z,1.55
2023-02-03T00:15:33.429Z,1.56
2023-02-03T00:15:43.444Z,1.55
2023-02-03T00:15:53.428Z,1.55
2023-02-03T00:16:03.485Z,1.55
2023-02-03T00:16:13.494Z,1.54
2023-02-03T00:16:23.440Z,1.56
2023-02-03T00:16:33.539Z,1.56
2023-02-03T00:16:43.472Z,1.58
2023-02-03T00:16:53.449Z,1.59
2023-02-03T00:17:03.442Z,1.61
2023-02-03T00:17:13.431Z,1.61
2023-02-03T00:17:23.437Z,1.63
2023-02-03T00:17:33.443Z,1.65
2023-02-03T00:17:43.440Z,1.67
2023-02-03T00:17:53.453Z,1.66
2023-02-03T00:18:03.444Z,1.66
2023-02-03T00:18:14.301Z,1.67
2023-02-03T00:18:23.434Z,1.67
2023-02-03T00:18:33.434Z,1.67
2023-02-03T00:18:43.437Z,1.69
2023-02-03T00:18:53.477Z,1.69
2023-02-03T00:19:03.450Z,1.72
2023-02-03T00:19:13.443Z,1.70
2023-02-03T00:19:23.443Z,1.70
2023-02-03T00:19:33.448Z,1.72
2023-02-03T00:19:43.445Z,1.73
2023-02-03T00:19:53.533Z,1.72
2023-02-03T00:20:03.447Z,1.73
2023-02-03T00:20:13.441Z,1.73
2023-02-03T00:20:23.685Z,1.72
2023-02-03T00:20:33.451Z,1.73
2023-02-03T00:20:43.444Z,1.73
2023-02-03T00:20:53.475Z,1.73
2023-02-03T00:21:03.450Z,1.74
2023-02-03T00:21:13.449Z,1.76
2023-02-03T00:21:23.460Z,1.76
2023-02-03T00:21:33.452Z,1.76
2023-02-03T00:21:43.460Z,1.76
2023-02-03T00:21:53.458Z,1.77
2023-02-03T00:22:03.472Z,1.76
2023-02-03T00:22:13.466Z,1.76
2023-02-03T00:22:23.463Z,1.77
2023-02-03T00:22:33.455Z,1.74
2023-02-03T00:22:43.453Z,1.77
2023-02-03T00:22:53.455Z,1.77
2023-02-03T00:23:03.459Z,1.79
2023-02-03T00:23:13.464Z,1.79
2023-02-03T00:23:23.464Z,1.81
2023-02-03T00:23:33.483Z,1.79
2023-02-03T00:23:43.478Z,1.79
2023-02-03T00:23:53.470Z,1.79
2023-02-03T00:24:03.475Z,1.77
2023-02-03T00:24:13.467Z,1.77
2023-02-03T00:24:23.475Z,1.77
2023-02-03T00:24:33.470Z,1.77
2023-02-03T00:24:43.469Z,1.76
2023-02-03T00:24:53.468Z,1.77
2023-02-03T00:25:03.480Z,1.79
2023-02-03T00:25:13.488Z,1.79
2023-02-03T00:25:23.476Z,1.77
2023-02-03T00:25:33.467Z,1.77
2023-02-03T00:25:43.468Z,1.79
2023-02-03T00:25:53.467Z,1.77
2023-02-03T00:26:03.486Z,1.79
2023-02-03T00:26:13.476Z,1.79
2023-02-03T00:26:23.473Z,1.79
2023-02-03T00:26:33.484Z,1.81
2023-02-03T00:26:43.484Z,1.79
2023-02-03T00:26:53.482Z,1.81
2023-02-03T00:27:03.482Z,1.81
2023-02-03T00:27:13.479Z,1.81
2023-02-03T00:27:23.475Z,1.84
2023-02-03T00:27:33.479Z,1.84
2023-02-03T00:27:43.511Z,1.84
2023-02-03T00:27:53.501Z,1.85
2023-02-03T00:28:03.477Z,1.87
2023-02-03T00:28:13.528Z,1.87
2023-02-03T00:28:23.494Z,1.87
2023-02-03T00:28:33.481Z,1.88
2023-02-03T00:28:43.492Z,1.87
2023-02-03T00:28:53.483Z,1.87
2023-02-03T00:29:03.487Z,1.87
2023-02-03T00:29:13.485Z,1.85
2023-02-03T00:29:23.480Z,1.85
2023-02-03T00:29:33.488Z,1.85
2023-02-03T00:29:43.497Z,1.85
2023-02-03T00:29:53.489Z,1.85
2023-02-03T00:30:03.486Z,1.84
2023-02-03T00:30:13.486Z,1.85
2023-02-03T00:30:23.655Z,1.88
2023-02-03T00:30:33.496Z,1.88
2023-02-03T00:30:43.491Z,1.87
2023-02-03T00:30:53.492Z,1.88
2023-02-03T00:31:03.501Z,1.87
2023-02-03T00:31:13.576Z,1.88
2023-02-03T00:31:23.625Z,1.90
2023-02-03T00:31:33.590Z,1.90
2023-02-03T00:31:43.661Z,1.90
2023-02-03T00:31:53.731Z,1.91
2023-02-03T00:32:03.592Z,1.90
2023-02-03T00:32:13.611Z,1.90
2023-02-03T00:32:23.671Z,1.90
2023-02-03T00:32:33.643Z,1.88
2023-02-03T00:32:43.525Z,1.90
2023-02-03T00:32:53.508Z,1.87
2023-02-03T00:33:03.510Z,1.87
2023-02-03T00:33:13.506Z,1.87
2023-02-03T00:33:23.513Z,1.85
2023-02-03T00:33:33.516Z,1.87
2023-02-03T00:33:43.519Z,1.87
2023-02-03T00:33:53.507Z,1.84
2023-02-03T00:34:03.505Z,1.85
2023-02-03T00:34:13.507Z,1.85
2023-02-03T00:34:23.517Z,1.84
2023-02-03T00:34:33.510Z,1.83
2023-02-03T00:34:43.511Z,1.84
2023-02-03T00:34:53.525Z,1.83
2023-02-03T00:35:03.514Z,1.81
2023-02-03T00:35:13.506Z,1.81
2023-02-03T00:35:23.511Z,1.83
2023-02-03T00:35:33.514Z,1.83
2023-02-03T00:35:43.513Z,1.81
2023-02-03T00:35:53.513Z,1.83
2023-02-03T00:36:03.519Z,1.81
2023-02-03T00:36:13.517Z,1.83
2023-02-03T00:36:23.511Z,1.83
2023-02-03T00:36:33.515Z,1.85
2023-02-03T00:36:43.515Z,1.85
2023-02-03T00:36:53.524Z,1.85
2023-02-03T00:37:03.532Z,1.85
2023-02-03T00:37:13.561Z,1.85
2023-02-03T00:37:23.529Z,1.87
2023-02-03T00:37:33.533Z,1.84
2023-02-03T00:37:43.518Z,1.87
2023-02-03T00:37:53.543Z,1.88
2023-02-03T00:38:03.546Z,1.88
2023-02-03T00:38:13.523Z,1.88
2023-02-03T00:38:23.545Z,1.88
2023-02-03T00:38:33.525Z,1.88
2023-02-03T00:38:43.527Z,1.88
2023-02-03T00:38:53.527Z,1.88
2023-02-03T00:39:03.535Z,1.87
2023-02-03T00:39:13.542Z,1.88
2023-02-03T00:39:23.538Z,1.85
2023-02-03T00:39:33.529Z,1.87
2023-02-03T00:39:43.531Z,1.87
2023-02-03T00:39:53.531Z,1.85
2023-02-03T00:40:03.525Z,1.87
2023-02-03T00:40:13.533Z,1.87
2023-02-03T00:40:23.760Z,1.85
2023-02-03T00:40:33.530Z,1.87
2023-02-03T00:40:43.530Z,1.85
2023-02-03T00:40:53.549Z,1.85
2023-02-03T00:41:03.530Z,1.84
2023-02-03T00:41:13.539Z,1.84
2023-02-03T00:41:23.546Z,1.85
2023-02-03T00:41:33.536Z,1.84
2023-02-03T00:41:43.542Z,1.85
2023-02-03T00:41:53.535Z,1.84
2023-02-03T00:42:03.537Z,1.84
2023-02-03T00:42:13.545Z,1.85
2023-02-03T00:42:23.546Z,1.85
2023-02-03T00:42:33.547Z,1.88
2023-02-03T00:42:43.575Z,1.91
2023-02-03T00:42:53.539Z,1.92
2023-02-03T00:43:03.550Z,1.91
2023-02-03T00:43:13.542Z,1.94
2023-02-03T00:43:23.557Z,1.94
2023-02-03T00:43:33.553Z,1.94
2023-02-03T00:43:43.555Z,1.94
2023-02-03T00:43:53.553Z,1.92
2023-02-03T00:44:03.561Z,1.92
2023-02-03T00:44:13.549Z,1.92
2023-02-03T00:44:23.570Z,1.94
2023-02-03T00:44:33.549Z,1.92
2023-02-03T00:44:43.551Z,1.94
2023-02-03T00:44:53.552Z,1.92
2023-02-03T00:45:03.560Z,1.94
2023-02-03T00:45:13.556Z,1.92
2023-02-03T00:45:23.553Z,1.94
2023-02-03T00:45:33.560Z,1.94
2023-02-03T00:45:43.609Z,1.94
2023-02-03T00:45:53.600Z,1.94
2023-02-03T00:46:03.595Z,1.94
2023-02-03T00:46:13.631Z,1.94
2023-02-03T00:46:23.567Z,1.92
2023-02-03T00:46:33.563Z,1.94
2023-02-03T00:46:43.567Z,1.94
2023-02-03T00:46:53.580Z,1.94
2023-02-03T00:47:03.565Z,1.92
2023-02-03T00:47:13.584Z,1.95
2023-02-03T00:47:23.565Z,1.95
2023-02-03T00:47:33.797Z,1.98
2023-02-03T00:47:43.570Z,1.99
2023-02-03T00:47:53.584Z,1.99
2023-02-03T00:48:03.580Z,2.02
2023-02-03T00:48:13.574Z,1.98
2023-02-03T00:48:23.600Z,1.98
2023-02-03T00:48:33.583Z,1.98
2023-02-03T00:48:43.580Z,1.99
2023-02-03T00:48:53.583Z,1.95
2023-02-03T00:49:03.604Z,1.99
2023-02-03T00:49:13.563Z,1.98
2023-02-03T00:49:23.576Z,1.95
2023-02-03T00:49:33.579Z,1.98
2023-02-03T00:49:43.600Z,1.95
2023-02-03T00:49:53.583Z,1.94
2023-02-03T00:50:03.581Z,1.95
2023-02-03T00:50:13.600Z,1.94
2023-02-03T00:50:23.620Z,1.94
2023-02-03T00:50:33.589Z,1.94
2023-02-03T00:50:43.622Z,1.94
2023-02-03T00:50:53.584Z,1.92
2023-02-03T00:51:03.588Z,1.94
2023-02-03T00:51:13.592Z,1.94
2023-02-03T00:51:23.591Z,1.95
2023-02-03T00:51:33.606Z,1.95
2023-02-03T00:51:43.599Z,1.95
2023-02-03T00:51:53.589Z,1.94
2023-02-03T00:52:03.592Z,1.98
2023-02-03T00:52:13.603Z,1.94
2023-02-03T00:52:23.596Z,1.98
2023-02-03T00:52:33.595Z,1.98
2023-02-03T00:52:43.593Z,1.98
2023-02-03T00:52:53.599Z,1.99
2023-02-03T00:53:03.591Z,2.02
2023-02-03T00:53:13.599Z,1.99
2023-02-03T00:53:23.594Z,1.99
2023-02-03T00:53:33.607Z,2.02
2023-02-03T00:53:43.608Z,2.02
2023-02-03T00:53:53.602Z,2.02
2023-02-03T00:54:03.603Z,2.03
2023-02-03T00:54:13.630Z,2.03
2023-02-03T00:54:23.599Z,2.04
2023-02-03T00:54:33.897Z,2.03
2023-02-03T00:54:43.599Z,2.04
2023-02-03T00:54:53.602Z,2.06
2023-02-03T00:55:03.603Z,2.06
2023-02-03T00:55:13.612Z,2.07
2023-02-03T00:55:23.618Z,2.07
2023-02-03T00:55:33.605Z,2.11
2023-02-03T00:55:43.610Z,2.10
2023-02-03T00:55:53.607Z,2.10
2023-02-03T00:56:03.642Z,2.10
2023-02-03T00:56:13.612Z,2.10
2023-02-03T00:56:23.624Z,2.13
2023-02-03T00:56:33.611Z,2.13
2023-02-03T00:56:43.613Z,2.13
2023-02-03T00:56:53.611Z,2.14
2023-02-03T00:57:03.642Z,2.14
2023-02-03T00:57:13.617Z,2.16
2023-02-03T00:57:23.612Z,2.16
2023-02-03T00:57:33.618Z,2.14
2023-02-03T00:57:43.618Z,2.14
2023-02-03T00:57:53.619Z,2.13
2023-02-03T00:58:03.621Z,2.14
2023-02-03T00:58:13.626Z,2.17
2023-02-03T00:58:23.623Z,2.17
2023-02-03T00:58:33.617Z,2.20
2023-02-03T00:58:43.617Z,2.20
2023-02-03T00:58:53.616Z,2.21
2023-02-03T00:59:04.640Z,2.20
2023-02-03T00:59:13.643Z,2.21
2023-02-03T00:59:23.619Z,2.21
2023-02-03T00:59:33.634Z,2.21
2023-02-03T00:59:43.627Z,2.21
2023-02-03T00:59:53.650Z,2.21
2023-02-03T01:00:03.635Z,2.21
2023-02-03T01:00:13.640Z,2.21
2023-02-03T01:00:24.164Z,2.21
2023-02-03T01:00:33.636Z,2.21
2023-02-03T01:00:43.631Z,2.21
2023-02-03T01:00:53.671Z,2.21
2023-02-03T01:01:03.690Z,2.22
2023-02-03T01:01:13.660Z,2.24
2023-02-03T01:01:23.677Z,2.22
2023-02-03T01:01:33.654Z,2.24
2023-02-03T01:01:43.635Z,2.24
2023-02-03T01:01:53.734Z,2.25
2023-02-03T01:02:03.664Z,2.25
2023-02-03T01:02:13.741Z,2.27
2023-02-03T01:02:23.750Z,2.29
2023-02-03T01:02:33.694Z,2.29
2023-02-03T01:02:43.721Z,2.29
2023-02-03T01:02:53.634Z,2.29
2023-02-03T01:03:03.645Z,2.29
2023-02-03T01:03:13.647Z,2.31
2023-02-03T01:03:23.638Z,2.29
2023-02-03T01:03:33.640Z,2.31
2023-02-03T01:03:43.643Z,2.32
2023-02-03T01:03:53.637Z,2.34
2023-02-03T01:04:03.656Z,2.35
2023-02-03T01:04:13.646Z,2.35
2023-02-03T01:04:23.659Z,2.34
2023-02-03T01:04:33.649Z,2.35
2023-02-03T01:04:43.655Z,2.35
2023-02-03T01:04:53.653Z,2.35
2023-02-03T01:05:03.673Z,2.37
2023-02-03T01:05:13.650Z,2.35
2023-02-03T01:05:23.646Z,2.37
2023-02-03T01:05:33.651Z,2.37
2023-02-03T01:05:43.645Z,2.39
2023-02-03T01:05:53.646Z,2.37
2023-02-03T01:06:03.686Z,2.39
2023-02-03T01:06:13.650Z,2.40
2023-02-03T01:06:23.648Z,2.39
2023-02-03T01:06:33.650Z,2.40
2023-02-03T01:06:43.687Z,2.40
2023-02-03T01:06:53.652Z,2.42
2023-02-03T01:07:03.661Z,2.42
2023-02-03T01:07:13.678Z,2.42
2023-02-03T01:07:23.651Z,2.42
2023-02-03T01:07:33.684Z,2.43
2023-02-03T01:07:43.659Z,2.43
2023-02-03T01:07:53.657Z,2.43
2023-02-03T01:08:03.655Z,2.43
2023-02-03T01:08:13.669Z,2.45
2023-02-03T01:08:23.701Z,2.43
2023-02-03T01:08:33.666Z,2.43
2023-02-03T01:08:43.662Z,2.43
2023-02-03T01:08:53.658Z,2.45
2023-02-03T01:09:03.662Z,2.43
2023-02-03T01:09:13.657Z,2.43
2023-02-03T01:09:23.691Z,2.42
2023-02-03T01:09:33.667Z,2.43
2023-02-03T01:09:43.667Z,2.43
2023-02-03T01:09:53.687Z,2.45
2023-02-03T01:10:03.675Z,2.43
2023-02-03T01:10:13.690Z,2.43
2023-02-03T01:10:23.810Z,2.43
2023-02-03T01:10:33.671Z,2.43
2023-02-03T01:10:43.679Z,2.42
2023-02-03T01:10:53.670Z,2.43
2023-02-03T01:11:03.681Z,2.43
2023-02-03T01:11:13.709Z,2.43
2023-02-03T01:11:23.677Z,2.43
2023-02-03T01:11:33.671Z,2.40
2023-02-03T01:11:43.685Z,2.42
2023-02-03T01:11:53.678Z,2.43
2023-02-03T01:12:03.681Z,2.43
2023-02-03T01:12:13.681Z,2.46
2023-02-03T01:12:23.678Z,2.45
2023-02-03T01:12:33.686Z,2.47
2023-02-03T01:12:43.696Z,2.46
2023-02-03T01:12:53.679Z,2.46
2023-02-03T01:13:03.696Z,2.49
2023-02-03T01:13:13.678Z,2.47
2023-02-03T01:13:23.685Z,2.49
2023-02-03T01:13:33.699Z,2.49
2023-02-03T01:13:43.682Z,2.50
2023-02-03T01:13:53.687Z,2.52
2023-02-03T01:14:03.695Z,2.53
2023-02-03T01:14:13.691Z,2.53
2023-02-03T01:14:23.687Z,2.53
2023-02-03T01:14:33.686Z,2.53
2023-02-03T01:14:43.713Z,2.55
2023-02-03T01:14:53.707Z,2.53
2023-02-03T01:15:03.699Z,2.55
2023-02-03T01:15:13.693Z,2.53
2023-02-03T01:15:23.688Z,2.57
2023-02-03T01:15:33.694Z,2.53
2023-02-03T01:15:43.699Z,2.55
2023-02-03T01:15:53.693Z,2.55
2023-02-03T01:16:03.699Z,2.55
2023-02-03T01:16:13.703Z,2.55
2023-02-03T01:16:23.725Z,2.53
2023-02-03T01:16:33.814Z,2.55
2023-02-03T01:16:43.719Z,2.53
2023-02-03T01:16:53.746Z,2.55
2023-02-03T01:17:03.743Z,2.52
2023-02-03T01:17:13.712Z,2.50
2023-02-03T01:17:23.703Z,2.50
2023-02-03T01:17:33.740Z,2.50
2023-02-03T01:17:43.713Z,2.53
2023-02-03T01:17:53.700Z,2.52
2023-02-03T01:18:03.705Z,2.52
2023-02-03T01:18:13.719Z,2.53
2023-02-03T01:18:23.698Z,2.55
2023-02-03T01:18:33.711Z,2.55
2023-02-03T01:18:43.748Z,2.53
2023-02-03T01:18:53.711Z,2.57
2023-02-03T01:19:03.744Z,2.57
2023-02-03T01:19:13.705Z,2.57
2023-02-03T01:19:23.705Z,2.57
2023-02-03T01:19:33.708Z,2.57
2023-02-03T01:19:43.706Z,2.57
2023-02-03T01:19:53.705Z,2.55
2023-02-03T01:20:03.720Z,2.57
2023-02-03T01:20:13.712Z,2.55
2023-02-03T01:20:23.780Z,2.58
2023-02-03T01:20:33.715Z,2.58
2023-02-03T01:20:43.723Z,2.57
2023-02-03T01:20:53.710Z,2.57
2023-02-03T01:21:03.721Z,2.55
2023-02-03T01:21:13.716Z,2.57
2023-02-03T01:21:23.716Z,2.57
2023-02-03T01:21:33.714Z,2.55
2023-02-03T01:21:43.714Z,2.55
2023-02-03T01:21:53.716Z,2.55
2023-02-03T01:22:03.732Z,2.57
2023-02-03T01:22:13.724Z,2.55
2023-02-03T01:22:23.719Z,2.55
2023-02-03T01:22:33.738Z,2.55
2023-02-03T01:22:43.723Z,2.55
2023-02-03T01:22:53.732Z,2.57
2023-02-03T01:23:03.780Z,2.55
2023-02-03T01:23:13.740Z,2.52
2023-02-03T01:23:23.726Z,2.50
2023-02-03T01:23:33.746Z,2.52
2023-02-03T01:23:43.733Z,2.52
2023-02-03T01:23:53.739Z,2.52
2023-02-03T01:24:03.736Z,2.50
2023-02-03T01:24:13.736Z,2.50
2023-02-03T01:24:23.742Z,2.49
2023-02-03T01:24:33.734Z,2.47
2023-02-03T01:24:43.745Z,2.47
2023-02-03T01:24:53.734Z,2.46
2023-02-03T01:25:03.741Z,2.47
2023-02-03T01:25:13.737Z,2.46
2023-02-03T01:25:23.744Z,2.47
2023-02-03T01:25:33.741Z,2.49
2023-02-03T01:25:43.767Z,2.47
2023-02-03T01:25:53.747Z,2.47
2023-02-03T01:26:03.748Z,2.49
2023-02-03T01:26:13.737Z,2.50
2023-02-03T01:26:23.758Z,2.50
2023-02-03T01:26:33.749Z,2.50
2023-02-03T01:26:43.745Z,2.50
2023-02-03T01:26:53.750Z,2.55
2023-02-03T01:27:03.752Z,2.57
2023-02-03T01:27:13.742Z,2.57
2023-02-03T01:27:23.765Z,2.58
2023-02-03T01:27:33.768Z,2.58
2023-02-03T01:27:43.786Z,2.57
2023-02-03T01:27:53.792Z,2.58
2023-02-03T01:28:03.808Z,2.57
2023-02-03T01:28:13.847Z,2.57
2023-02-03T01:28:23.751Z,2.58
2023-02-03T01:28:33.754Z,2.58
2023-02-03T01:28:43.747Z,2.60
2023-02-03T01:28:53.765Z,2.58
2023-02-03T01:29:03.761Z,2.60
2023-02-03T01:29:13.786Z,2.61
2023-02-03T01:29:23.764Z,2.63
2023-02-03T01:29:33.773Z,2.61
2023-02-03T01:29:43.758Z,2.61
2023-02-03T01:29:53.762Z,2.63
2023-02-03T01:30:03.757Z,2.61
2023-02-03T01:30:13.784Z,2.63
2023-02-03T01:30:24.022Z,2.61
2023-02-03T01:30:33.812Z,2.64
2023-02-03T01:30:43.930Z,2.64
2023-02-03T01:30:53.828Z,2.65
2023-02-03T01:31:03.870Z,2.64
2023-02-03T01:31:13.879Z,2.65
2023-02-03T01:31:23.934Z,2.65
2023-02-03T01:31:33.889Z,2.65
2023-02-03T01:31:43.847Z,2.67
2023-02-03T01:31:53.914Z,2.65
2023-02-03T01:32:03.845Z,2.64
2023-02-03T01:32:13.774Z,2.67
2023-02-03T01:32:23.772Z,2.67
2023-02-03T01:32:33.768Z,2.65
2023-02-03T01:32:43.774Z,2.65
2023-02-03T01:32:53.771Z,2.64
2023-02-03T01:33:03.771Z,2.64
2023-02-03T01:33:13.771Z,2.63
2023-02-03T01:33:23.780Z,2.63
2023-02-03T01:33:33.782Z,2.61
2023-02-03T01:33:43.789Z,2.63
2023-02-03T01:33:53.777Z,2.61
2023-02-03T01:34:03.783Z,2.63
2023-02-03T01:34:13.810Z,2.63
2023-02-03T01:34:23.783Z,2.63
2023-02-03T01:34:33.774Z,2.64
2023-02-03T01:34:43.780Z,2.61
2023-02-03T01:34:53.809Z,2.61
2023-02-03T01:35:03.788Z,2.64
2023-02-03T01:35:13.781Z,2.64
2023-02-03T01:35:23.783Z,2.64
2023-02-03T01:35:33.784Z,2.63
2023-02-03T01:35:43.788Z,2.64
2023-02-03T01:35:53.787Z,2.64
2023-02-03T01:36:03.796Z,2.64
2023-02-03T01:36:13.793Z,2.64
2023-02-03T01:36:23.784Z,2.65
2023-02-03T01:36:33.794Z,2.67
2023-02-03T01:36:43.792Z,2.64
2023-02-03T01:36:53.789Z,2.64
2023-02-03T01:37:03.788Z,2.65
2023-02-03T01:37:13.793Z,2.64
2023-02-03T01:37:23.791Z,2.64
2023-02-03T01:37:33.794Z,2.64
2023-02-03T01:37:43.795Z,2.64
2023-02-03T01:37:53.802Z,2.64
2023-02-03T01:38:03.820Z,2.65
2023-02-03T01:38:13.842Z,2.67
2023-02-03T01:38:23.798Z,2.70
2023-02-03T01:38:33.803Z,2.71
2023-02-03T01:38:43.800Z,2.71
2023-02-03T01:38:53.808Z,2.71
2023-02-03T01:39:03.806Z,2.71
2023-02-03T01:39:13.812Z,2.73
2023-02-03T01:39:23.807Z,2.73
2023-02-03T01:39:33.805Z,2.71
2023-02-03T01:39:43.814Z,2.71
2023-02-03T01:39:53.804Z,2.71
2023-02-03T01:40:03.807Z,2.70
2023-02-03T01:40:13.815Z,2.70
2023-02-03T01:40:23.906Z,2.71
2023-02-03T01:40:33.811Z,2.71
2023-02-03T01:40:43.817Z,2.71
2023-02-03T01:40:53.810Z,2.73
2023-02-03T01:41:03.821Z,2.73
2023-02-03T01:41:13.812Z,2.73
2023-02-03T01:41:23.821Z,2.73
2023-02-03T01:41:33.824Z,2.71
2023-02-03T01:41:43.816Z,2.73
2023-02-03T01:41:53.817Z,2.73
2023-02-03T01:42:03.819Z,2.71
2023-02-03T01:42:13.822Z,2.73
2023-02-03T01:42:23.832Z,2.71
2023-02-03T01:42:33.855Z,2.73
2023-02-03T01:42:43.848Z,2.74
2023-02-03T01:42:53.821Z,2.74
2023-02-03T01:43:03.826Z,2.74
2023-02-03T01:43:13.811Z,2.74
2023-02-03T01:43:23.824Z,2.74
2023-02-03T01:43:33.820Z,2.74
2023-02-03T01:43:43.828Z,2.76
2023-02-03T01:43:53.840Z,2.74
2023-02-03T01:44:03.848Z,2.74
2023-02-03T01:44:13.832Z,2.76
2023-02-03T01:44:23.828Z,2.74
2023-02-03T01:44:33.833Z,2.74
2023-02-03T01:44:43.876Z,2.74
2023-02-03T01:44:53.826Z,2.76
2023-02-03T01:45:03.841Z,2.76
2023-02-03T01:45:13.841Z,2.79
2023-02-03T01:45:23.842Z,2.78
2023-02-03T01:45:33.873Z,2.81
2023-02-03T01:45:43.877Z,2.82
2023-02-03T01:45:53.861Z,2.81
2023-02-03T01:46:03.865Z,2.82
2023-02-03T01:46:13.860Z,2.82
2023-02-03T01:46:23.898Z,2.82
2023-02-03T01:46:33.836Z,2.82
2023-02-03T01:46:43.859Z,2.83
2023-02-03T01:46:53.842Z,2.86
2023-02-03T01:47:03.873Z,2.88
2023-02-03T01:47:13.848Z,2.88
2023-02-03T01:47:23.850Z,2.89
2023-02-03T01:47:33.854Z,2.91
2023-02-03T01:47:43.855Z,2.91
2023-02-03T01:47:53.856Z,2.91
2023-02-03T01:48:03.856Z,2.91
2023-02-03T01:48:13.862Z,2.89
2023-02-03T01:48:23.865Z,2.89
2023-02-03T01:48:33.853Z,2.89
2023-02-03T01:48:43.852Z,2.91
2023-02-03T01:48:53.861Z,2.89
2023-02-03T01:49:03.864Z,2.91
2023-02-03T01:49:13.854Z,2.91
2023-02-03T01:49:23.860Z,2.91
2023-02-03T01:49:33.854Z,2.91
2023-02-03T01:49:43.851Z,2.92
2023-02-03T01:49:53.872Z,2.92
2023-02-03T01:50:03.880Z,2.91
2023-02-03T01:50:13.873Z,2.92
2023-02-03T01:50:24.225Z,2.92
2023-02-03T01:50:33.895Z,2.92
2023-02-03T01:50:43.868Z,2.92
2023-02-03T01:50:53.892Z,2.96
2023-02-03T01:51:03.858Z,2.97
2023-02-03T01:51:13.860Z,2.99
2023-02-03T01:51:23.862Z,2.99
2023-02-03T01:51:33.861Z,3.00
2023-02-03T01:51:43.869Z,3.00
2023-02-03T01:51:53.873Z,3.00
2023-02-03T01:52:03.875Z,3.00
2023-02-03T01:52:13.869Z,3.00
2023-02-03T01:52:23.890Z,2.99
2023-02-03T01:52:33.870Z,3.00
2023-02-03T01:52:43.880Z,2.99
2023-02-03T01:52:53.873Z,2.96
2023-02-03T01:53:03.887Z,2.97
2023-02-03T01:53:13.869Z,2.97
2023-02-03T01:53:23.895Z,2.97
2023-02-03T01:53:33.874Z,2.97
2023-02-03T01:53:43.872Z,3.00
2023-02-03T01:53:53.917Z,3.00
2023-02-03T01:54:03.880Z,3.01
2023-02-03T01:54:13.879Z,3.00
2023-02-03T01:54:23.873Z,3.03
2023-02-03T01:54:33.880Z,3.01
2023-02-03T01:54:43.888Z,3.00
2023-02-03T01:54:53.911Z,3.01
2023-02-03T01:55:03.872Z,3.01
2023-02-03T01:55:13.878Z,3.01
2023-02-03T01:55:23.905Z,3.01
2023-02-03T01:55:33.876Z,3.00
2023-02-03T01:55:43.900Z,3.00
2023-02-03T01:55:53.880Z,2.99
2023-02-03T01:56:03.891Z,3.00
2023-02-03T01:56:13.889Z,3.00
2023-02-03T01:56:23.885Z,3.03
2023-02-03T01:56:33.881Z,3.04
2023-02-03T01:56:43.881Z,3.04
2023-02-03T01:56:53.888Z,3.04
2023-02-03T01:57:03.890Z,3.06
2023-02-03T01:57:14.811Z,3.06
2023-02-03T01:57:23.898Z,3.04
2023-02-03T01:57:33.904Z,3.06
2023-02-03T01:57:43.901Z,3.04
2023-02-03T01:57:53.889Z,3.06
2023-02-03T01:58:03.894Z,3.06
2023-02-03T01:58:13.897Z,3.07
2023-02-03T01:58:23.895Z,3.09
2023-02-03T01:58:33.917Z,3.10
2023-02-03T01:58:43.901Z,3.10
2023-02-03T01:58:53.900Z,3.12
2023-02-03T01:59:03.904Z,3.09
2023-02-03T01:59:13.901Z,3.09
2023-02-03T01:59:23.906Z,3.09
2023-02-03T01:59:33.909Z,3.09
2023-02-03T01:59:43.896Z,3.07
2023-02-03T01:59:53.904Z,3.09
2023-02-03T02:00:03.904Z,3.10
2023-02-03T02:00:13.927Z,3.10
2023-02-03T02:00:24.232Z,3.10
2023-02-03T02:00:33.917Z,3.12
2023-02-03T02:00:43.928Z,3.12
2023-02-03T02:00:53.919Z,3.10
2023-02-03T02:01:03.942Z,3.14
2023-02-03T02:01:13.972Z,3.14
2023-02-03T02:01:23.965Z,3.12
2023-02-03T02:01:33.952Z,3.14
2023-02-03T02:01:44.019Z,3.14
2023-02-03T02:01:53.909Z,3.12
2023-02-03T02:02:03.911Z,3.12
2023-02-03T02:02:13.968Z,3.14
2023-02-03T02:02:23.948Z,3.14
2023-02-03T02:02:33.935Z,3.15
2023-02-03T02:02:44.007Z,3.15
2023-02-03T02:02:53.964Z,3.14
2023-02-03T02:03:03.912Z,3.14
2023-02-03T02:03:13.934Z,3.14
2023-02-03T02:03:23.940Z,3.14
2023-02-03T02:03:33.910Z,3.12
2023-02-03T02:03:43.949Z,3.09
2023-02-03T02:03:53.924Z,3.10
2023-02-03T02:04:03.939Z,3.14
2023-02-03T02:04:13.917Z,3.14
2023-02-03T02:04:23.913Z,3.15
2023-02-03T02:04:33.915Z,3.17
2023-02-03T02:04:43.918Z,3.17
2023-02-03T02:04:53.927Z,3.17
2023-02-03T02:05:03.913Z,3.15
2023-02-03T02:05:13.919Z,3.12
2023-02-03T02:05:23.916Z,3.17
2023-02-03T02:05:33.922Z,3.17
2023-02-03T02:05:43.931Z,3.15
2023-02-03T02:05:53.919Z,3.15
2023-02-03T02:06:03.933Z,3.18
2023-02-03T02:06:13.916Z,3.21
2023-02-03T02:06:23.921Z,3.21
2023-02-03T02:06:33.921Z,3.22
2023-02-03T02:06:43.930Z,3.22
2023-02-03T02:06:53.926Z,3.22
2023-02-03T02:07:03.923Z,3.19
2023-02-03T02:07:13.927Z,3.22
2023-02-03T02:07:23.932Z,3.24
2023-02-03T02:07:33.924Z,3.22
2023-02-03T02:07:43.944Z,3.22
2023-02-03T02:07:53.946Z,3.19
2023-02-03T02:08:03.943Z,3.19
2023-02-03T02:08:13.931Z,3.17
2023-02-03T02:08:23.936Z,3.17
2023-02-03T02:08:33.930Z,3.18
2023-02-03T02:08:43.933Z,3.19
2023-02-03T02:08:53.935Z,3.18
2023-02-03T02:09:03.930Z,3.18
2023-02-03T02:09:13.932Z,3.18
2023-02-03T02:09:23.931Z,3.19
2023-02-03T02:09:33.955Z,3.18
2023-02-03T02:09:43.936Z,3.17
2023-02-03T02:09:53.938Z,3.18
2023-02-03T02:10:03.944Z,3.18
2023-02-03T02:10:13.933Z,3.18
2023-02-03T02:10:24.002Z,3.18
2023-02-03T02:10:33.954Z,3.17
2023-02-03T02:10:43.942Z,3.17
2023-02-03T02:10:53.950Z,3.17
2023-02-03T02:11:03.945Z,3.18
2023-02-03T02:11:13.951Z,3.19
2023-02-03T02:11:23.962Z,3.22
2023-02-03T02:11:33.969Z,3.22
2023-02-03T02:11:43.941Z,3.24
2023-02-03T02:11:53.949Z,3.22
2023-02-03T02:12:03.950Z,3.22
2023-02-03T02:12:13.948Z,3.21
2023-02-03T02:12:23.965Z,3.22
2023-02-03T02:12:33.951Z,3.24
2023-02-03T02:12:43.977Z,3.24
2023-02-03T02:12:53.960Z,3.25
2023-02-03T02:13:03.960Z,3.24